SLC weather

Salt Lake City International Airport
Salt Lake City, Utah, United States

Public forecast

Using degrees Fahrenheit for public forecast. Weather courtesy of forecast.io.

METAR (pilot weather report)

Retrieved 2017/10/19 10:54 UTC (51 minutes ago):

KSLC 191054Z COR 13006KT 10SM FEW200 07/M01 A3000 RMK AO2 SLP128 T00721011 $

TAF (pilot weather forecast)

Retrieved 2017/10/19 06:24 UTC (5 hours ago):

TAF KSLC 190523Z 1906/2012 15007KT P6SM SCT200 FM191600 17012G18KT P6SM SCT200 FM192100 32004KT P6SM SCT200 FM200200 17008KT P6SM SCT200